LFLN/SYT METAR and TAF weather

Enter ICAO airport designator
Station Type Date Time Source
LFLN METAR 2022/12/10 03:00 UTC NOAA

LFLN 100300Z AUTO 30006KT 7000 OVC006 M00/M01 Q1006


Station Type Date Time Source
LFLN Decoded METAR 2022/12/10 03:00 UTC NOAA

Saint-Yan, France (LFLN) 46-25N 004-01E 244M
Dec 09, 2022 - 10:00 PM EST / 2022.12.10 0300 UTC
Wind: from the WNW (300 degrees) at 7 MPH (6 KT):0
Visibility: 4 mile(s):0
Sky conditions: overcast
Temperature: 32 F (0 C)
Windchill: 24 F (-4 C):1
Dew Point: 30 F (-1 C)
Relative Humidity: 92%
Pressure (altimeter): 29.71 in. Hg (1006 hPa)
ob: LFLN 100300Z AUTO 30006KT 7000 OVC006 M00/M01 Q1006
cycle: 3

Station Type Date Time Source
LFLN TAF UTC NOAA

Error!

Example: see airport list